Time;durP1;ratioP1;P1;durP2;ratioP2;P2;SDS_P1;SDS_P2;PMS_P1;PMS_P2;Temp;Humidity;BMP_temperature;BMP_pressure;BME280_temperature;BME280_humidity;BME280_pressure;Samples;Min_cycle;Max_cycle;Signal;HPM_P1;HPM_P2
2022/02/12 00:00:11;;;;;;;5.35;3.05;;;;;;;;;;4976072;28;20019;-73
2022/02/12 00:02:37;;;;;;;4.22;2.83;;;;;;;;;;4970520;28;20035;-74
2022/02/12 00:05:03;;;;;;;4.30;3.20;;;;;;;;;;4975966;28;20026;-72
2022/02/12 00:07:29;;;;;;;5.47;3.40;;;;;;;;;;4975055;28;20023;-73
2022/02/12 00:09:55;;;;;;;6.93;3.72;;;;;;;;;;4975899;28;20027;-73
2022/02/12 00:12:21;;;;;;;5.60;3.13;;;;;;;;;;4975466;28;20045;-73
2022/02/12 00:14:47;;;;;;;4.40;3.22;;;;;;;;;;4975259;28;20038;-73
2022/02/12 00:17:13;;;;;;;4.78;3.30;;;;;;;;;;4975351;28;20070;-73
2022/02/12 00:19:39;;;;;;;6.65;3.40;;;;;;;;;;4975227;28;20069;-74
2022/02/12 00:22:05;;;;;;;5.88;3.60;;;;;;;;;;4975330;28;20388;-72
2022/02/12 00:24:32;;;;;;;5.40;3.35;;;;;;;;;;4975152;28;20399;-72
2022/02/12 00:26:58;;;;;;;6.78;3.53;;;;;;;;;;4975609;28;20027;-73
2022/02/12 00:29:24;;;;;;;6.43;2.95;;;;;;;;;;4975393;28;20189;-73
2022/02/12 00:31:50;;;;;;;5.03;3.05;;;;;;;;;;4975603;28;20055;-73
2022/02/12 00:34:16;;;;;;;5.22;3.20;;;;;;;;;;4975780;28;20027;-72
2022/02/12 00:36:42;;;;;;;4.72;2.90;;;;;;;;;;4974908;28;20031;-72
2022/02/12 00:39:09;;;;;;;5.22;3.40;;;;;;;;;;4974823;28;20481;-73
2022/02/12 00:41:35;;;;;;;4.32;3.05;;;;;;;;;;4975413;28;20388;-73
2022/02/12 00:44:01;;;;;;;4.82;2.97;;;;;;;;;;4975291;28;20039;-73
2022/02/12 00:46:27;;;;;;;5.18;3.30;;;;;;;;;;4975189;28;20058;-73
2022/02/12 00:48:53;;;;;;;7.13;3.22;;;;;;;;;;4974584;28;20035;-72
2022/02/12 00:51:22;;;;;;;6.38;3.67;;;;;;;;;;4975001;28;20019;-74
2022/02/12 00:53:48;;;;;;;4.40;3.30;;;;;;;;;;4974113;28;20159;-72
2022/02/12 00:56:14;;;;;;;6.95;3.55;;;;;;;;;;4975212;28;20023;-72
2022/02/12 00:58:40;;;;;;;5.15;3.38;;;;;;;;;;4975978;28;20062;-73
2022/02/12 01:01:06;;;;;;;5.65;3.40;;;;;;;;;;4975213;28;20026;-73
2022/02/12 01:03:32;;;;;;;5.05;3.20;;;;;;;;;;4974613;28;20035;-72
2022/02/12 01:05:58;;;;;;;4.40;3.10;;;;;;;;;;4973871;28;20031;-73
2022/02/12 01:08:24;;;;;;;5.90;3.20;;;;;;;;;;4974828;28;20400;-73
2022/02/12 01:10:50;;;;;;;4.57;2.78;;;;;;;;;;4974591;28;20031;-73
2022/02/12 01:13:16;;;;;;;5.78;3.20;;;;;;;;;;4957106;28;20054;-74
2022/02/12 01:15:43;;;;;;;7.30;3.30;;;;;;;;;;4973626;28;20031;-73
2022/02/12 01:18:09;;;;;;;5.72;3.83;;;;;;;;;;4973678;28;20166;-73
2022/02/12 01:20:35;;;;;;;5.95;3.40;;;;;;;;;;4973150;28;20069;-73
2022/02/12 01:23:01;;;;;;;7.03;3.63;;;;;;;;;;4974486;28;20465;-73
2022/02/12 01:25:28;;;;;;;4.70;3.20;;;;;;;;;;4974024;28;20027;-72
2022/02/12 01:27:54;;;;;;;6.00;2.97;;;;;;;;;;4974295;28;20316;-72
2022/02/12 01:30:20;;;;;;;6.80;3.42;;;;;;;;;;4973875;28;20027;-72
2022/02/12 01:32:46;;;;;;;5.07;3.10;;;;;;;;;;4969296;28;20031;-72
2022/02/12 01:35:12;;;;;;;4.57;2.90;;;;;;;;;;4973856;28;20113;-71
2022/02/12 01:37:39;;;;;;;9.32;3.08;;;;;;;;;;4973070;28;20039;-73
2022/02/12 01:40:06;;;;;;;4.22;2.80;;;;;;;;;;4974476;28;20031;-72
2022/02/12 01:42:32;;;;;;;5.60;3.08;;;;;;;;;;4974748;28;20131;-72
2022/02/12 01:45:01;;;;;;;5.63;2.90;;;;;;;;;;4974826;28;20046;-73
2022/02/12 01:47:28;;;;;;;5.50;3.03;;;;;;;;;;4974579;28;20019;-73
2022/02/12 01:49:55;;;;;;;7.65;3.75;;;;;;;;;;4973712;28;20117;-73
2022/02/12 01:52:21;;;;;;;4.97;2.83;;;;;;;;;;4973725;28;20502;-73
2022/02/12 01:54:48;;;;;;;4.78;2.80;;;;;;;;;;4973008;28;20085;-73
2022/02/12 01:57:14;;;;;;;4.68;2.60;;;;;;;;;;4973322;28;20027;-72
2022/02/12 01:59:40;;;;;;;6.85;3.08;;;;;;;;;;4973917;28;20033;-72
2022/02/12 02:02:07;;;;;;;5.53;2.83;;;;;;;;;;4973133;28;20034;-73
2022/02/12 02:04:33;;;;;;;4.25;2.70;;;;;;;;;;4971801;28;20496;-73
2022/02/12 02:07:00;;;;;;;7.03;2.85;;;;;;;;;;4974057;28;20081;-73
2022/02/12 02:09:29;;;;;;;9.20;3.00;;;;;;;;;;4961114;28;20115;-72
2022/02/12 02:11:55;;;;;;;4.82;2.70;;;;;;;;;;4964781;28;20026;-72
2022/02/12 02:14:29;;;;;;;5.85;3.20;;;;;;;;;;4974056;28;20400;-72
2022/02/12 02:16:56;;;;;;;5.60;3.05;;;;;;;;;;4974000;28;20026;-73
2022/02/12 02:19:23;;;;;;;6.55;3.10;;;;;;;;;;4973662;28;20042;-72
2022/02/12 02:21:53;;;;;;;4.65;2.78;;;;;;;;;;4974936;28;20373;-73
2022/02/12 02:24:20;;;;;;;4.25;2.72;;;;;;;;;;4974720;28;20066;-72
2022/02/12 02:26:46;;;;;;;4.15;2.95;;;;;;;;;;4973427;28;20495;-73
2022/02/12 02:29:12;;;;;;;5.88;3.35;;;;;;;;;;4973008;28;20441;-72
2022/02/12 02:31:38;;;;;;;7.07;3.40;;;;;;;;;;4975286;28;20129;-73
2022/02/12 02:34:11;;;;;;;8.35;3.47;;;;;;;;;;4976905;28;20035;-72
2022/02/12 02:36:37;;;;;;;6.57;3.20;;;;;;;;;;4977057;28;20027;-72
2022/02/12 02:39:04;;;;;;;4.18;3.05;;;;;;;;;;4977131;28;20042;-73
2022/02/12 02:41:30;;;;;;;4.30;2.90;;;;;;;;;;4977171;28;20034;-72
2022/02/12 02:43:58;;;;;;;6.28;2.72;;;;;;;;;;4976684;28;20049;-72
2022/02/12 02:46:25;;;;;;;7.97;3.08;;;;;;;;;;4977043;28;20155;-72
2022/02/12 02:48:51;;;;;;;4.78;2.70;;;;;;;;;;4976111;28;20030;-72
2022/02/12 02:56:50;;;;;;;6.85;2.90;;;;;;;;;;4977880;28;20050;-73
2022/02/12 02:59:16;;;;;;;4.88;2.90;;;;;;;;;;4977180;28;20126;-72
2022/02/12 03:01:42;;;;;;;6.68;2.80;;;;;;;;;;4975567;28;20081;-73
2022/02/12 03:04:08;;;;;;;6.45;3.40;;;;;;;;;;4958373;28;20038;-73
2022/02/12 03:06:34;;;;;;;5.72;3.42;;;;;;;;;;4957837;29;20042;-72
2022/02/12 03:09:00;;;;;;;5.00;3.13;;;;;;;;;;4974544;28;20031;-72
2022/02/12 03:11:26;;;;;;;5.57;3.30;;;;;;;;;;4977209;28;20018;-72
2022/02/12 03:13:55;;;;;;;7.20;3.97;;;;;;;;;;4976839;28;20031;-73
2022/02/12 03:16:21;;;;;;;6.45;3.55;;;;;;;;;;4976436;28;20488;-73
2022/02/12 03:18:48;;;;;;;5.65;3.60;;;;;;;;;;4976070;28;20039;-72
2022/02/12 03:21:14;;;;;;;6.55;3.65;;;;;;;;;;4976278;28;20031;-72
2022/02/12 03:23:42;;;;;;;7.03;3.45;;;;;;;;;;4973093;28;20086;-73
2022/02/12 03:26:08;;;;;;;6.38;3.53;;;;;;;;;;4972057;28;20023;-72
2022/02/12 03:28:34;;;;;;;6.78;3.60;;;;;;;;;;4975920;28;20023;-74
2022/02/12 03:31:00;;;;;;;17.02;11.40;;;;;;;;;;4974365;28;20031;-72
2022/02/12 03:33:27;;;;;;;7.45;4.68;;;;;;;;;;4976061;28;20047;-72
2022/02/12 03:35:56;;;;;;;4.25;3.15;;;;;;;;;;4976273;28;20059;-73
2022/02/12 03:38:26;;;;;;;5.93;3.33;;;;;;;;;;4976401;28;20030;-73
2022/02/12 03:40:54;;;;;;;7.60;3.47;;;;;;;;;;4975839;28;20031;-73
2022/02/12 03:43:20;;;;;;;5.45;3.30;;;;;;;;;;4974597;28;20496;-72
2022/02/12 03:45:47;;;;;;;5.82;3.83;;;;;;;;;;4975054;28;20035;-73
2022/02/12 03:48:13;;;;;;;5.40;3.13;;;;;;;;;;4958464;28;20394;-73
2022/02/12 03:50:40;;;;;;;7.05;3.38;;;;;;;;;;4976179;28;20026;-72
2022/02/12 03:53:07;;;;;;;7.13;3.60;;;;;;;;;;4974521;28;20031;-72
2022/02/12 03:55:37;;;;;;;6.10;3.70;;;;;;;;;;4975753;28;20023;-72
2022/02/12 03:58:06;;;;;;;4.97;3.47;;;;;;;;;;4976094;28;20074;-72
2022/02/12 04:00:34;;;;;;;6.30;3.75;;;;;;;;;;4975425;28;20031;-71
2022/02/12 04:03:01;;;;;;;6.38;4.10;;;;;;;;;;4974812;28;20506;-72
2022/02/12 04:05:27;;;;;;;6.22;3.65;;;;;;;;;;4956450;28;20027;-73
2022/02/12 04:07:53;;;;;;;7.63;4.97;;;;;;;;;;4956499;29;20037;-72
2022/02/12 04:10:20;;;;;;;10.05;5.57;;;;;;;;;;4956253;29;20055;-72
2022/02/12 04:12:48;;;;;;;9.00;5.07;;;;;;;;;;4962516;28;20035;-73
2022/02/12 04:15:15;;;;;;;6.35;3.88;;;;;;;;;;4975253;28;20031;-72
2022/02/12 04:17:41;;;;;;;9.27;3.72;;;;;;;;;;4975079;28;20046;-73
2022/02/12 04:20:11;;;;;;;7.90;4.03;;;;;;;;;;4974937;28;20039;-71
2022/02/12 04:22:38;;;;;;;7.88;4.40;;;;;;;;;;4975404;28;20370;-73
2022/02/12 04:25:05;;;;;;;8.27;3.47;;;;;;;;;;4974851;28;20035;-73
2022/02/12 04:27:31;;;;;;;7.03;3.63;;;;;;;;;;4974794;28;20035;-73
2022/02/12 04:29:57;;;;;;;7.90;3.65;;;;;;;;;;4974338;28;21851;-72
2022/02/12 04:32:23;;;;;;;8.45;3.42;;;;;;;;;;4975154;28;20051;-72
2022/02/12 04:34:50;;;;;;;6.65;3.60;;;;;;;;;;4974970;28;20243;-72
2022/02/12 04:37:18;;;;;;;7.32;3.33;;;;;;;;;;4976915;28;20054;-72
2022/02/12 04:39:44;;;;;;;9.02;4.10;;;;;;;;;;4993706;28;20026;-72
2022/02/12 04:42:13;;;;;;;7.82;4.53;;;;;;;;;;4978629;28;20030;-72
2022/02/12 04:44:43;;;;;;;7.82;3.53;;;;;;;;;;4956896;28;20042;-71
2022/02/12 04:47:09;;;;;;;6.60;3.85;;;;;;;;;;4966543;28;20034;-73
2022/02/12 04:49:36;;;;;;;7.93;4.22;;;;;;;;;;4963616;28;20039;-72
2022/02/12 04:52:03;;;;;;;6.93;4.13;;;;;;;;;;4957138;28;20031;-71
2022/02/12 04:54:31;;;;;;;6.57;4.47;;;;;;;;;;4973856;28;20463;-71
2022/02/12 04:56:58;;;;;;;9.85;3.88;;;;;;;;;;4973722;28;20027;-73
2022/02/12 04:59:24;;;;;;;8.43;4.00;;;;;;;;;;4974940;28;20026;-73
2022/02/12 05:01:50;;;;;;;7.47;4.60;;;;;;;;;;4956519;28;20035;-72
2022/02/12 05:04:17;;;;;;;9.52;4.32;;;;;;;;;;4975351;28;20050;-73
2022/02/12 05:06:43;;;;;;;9.90;4.13;;;;;;;;;;4975242;28;20468;-73
2022/02/12 05:09:11;;;;;;;7.88;3.47;;;;;;;;;;4974969;28;20507;-72
2022/02/12 05:11:37;;;;;;;7.75;4.00;;;;;;;;;;4974773;28;20384;-73
2022/02/12 05:14:03;;;;;;;9.90;4.40;;;;;;;;;;4973327;28;20038;-73
2022/02/12 05:16:29;;;;;;;7.10;3.55;;;;;;;;;;4974166;28;20067;-73
2022/02/12 05:18:58;;;;;;;6.35;3.95;;;;;;;;;;4974159;28;20030;-72
2022/02/12 05:21:24;;;;;;;9.20;4.78;;;;;;;;;;4974171;28;20031;-72
2022/02/12 05:23:50;;;;;;;9.57;4.40;;;;;;;;;;4974449;28;20060;-72
2022/02/12 05:26:16;;;;;;;9.98;5.40;;;;;;;;;;4973855;28;20029;-72
2022/02/12 05:28:43;;;;;;;8.60;4.88;;;;;;;;;;4974092;28;20109;-71
2022/02/12 05:31:09;;;;;;;12.27;4.88;;;;;;;;;;4974079;28;20476;-73
2022/02/12 05:33:38;;;;;;;14.05;6.70;;;;;;;;;;4955763;28;20416;-72
2022/02/12 05:36:09;;;;;;;12.52;6.72;;;;;;;;;;4971357;28;20082;-73
2022/02/12 05:38:42;;;;;;;12.85;6.22;;;;;;;;;;4973969;28;20544;-73
2022/02/12 05:41:09;;;;;;;13.10;5.68;;;;;;;;;;4974879;28;20062;-72
2022/02/12 05:43:49;;;;;;;17.02;8.70;;;;;;;;;;4982422;28;20109;-79
2022/02/12 05:49:19;;;;;;;16.05;8.38;;;;;;;;;;4996248;28;20038;-77
2022/02/12 05:51:45;;;;;;;18.30;8.35;;;;;;;;;;4981709;28;20090;-72
2022/02/12 05:54:11;;;;;;;13.15;6.20;;;;;;;;;;4972623;28;20023;-72
2022/02/12 05:56:37;;;;;;;9.43;6.32;;;;;;;;;;4973092;28;20031;-72
2022/02/12 05:59:08;;;;;;;12.20;6.57;;;;;;;;;;4975605;28;20031;-72
2022/02/12 06:01:35;;;;;;;10.57;5.40;;;;;;;;;;4976305;28;20496;-71
2022/02/12 06:04:01;;;;;;;10.48;5.07;;;;;;;;;;4974403;28;20031;-74
2022/02/12 06:06:27;;;;;;;11.55;4.22;;;;;;;;;;4956180;28;20031;-71
2022/02/12 06:08:54;;;;;;;9.10;4.88;;;;;;;;;;4974787;28;20018;-74
2022/02/12 06:11:20;;;;;;;8.50;5.07;;;;;;;;;;4974016;28;20046;-74
2022/02/12 06:13:51;;;;;;;9.80;4.97;;;;;;;;;;4973858;28;20060;-74
2022/02/12 06:16:18;;;;;;;11.57;5.18;;;;;;;;;;4978512;28;20090;-73
2022/02/12 06:18:44;;;;;;;7.22;4.50;;;;;;;;;;4975915;28;20027;-79
2022/02/12 06:21:18;;;;;;;12.82;5.70;;;;;;;;;;4980444;28;20019;-73
2022/02/12 06:23:44;;;;;;;10.43;5.30;;;;;;;;;;4955637;28;20042;-74
2022/02/12 06:26:13;;;;;;;11.73;6.20;;;;;;;;;;4972687;28;20023;-72
2022/02/12 06:28:39;;;;;;;13.05;5.35;;;;;;;;;;4973080;28;20105;-74
2022/02/12 06:31:09;;;;;;;10.75;5.32;;;;;;;;;;4964170;28;20513;-77
2022/02/12 06:33:40;;;;;;;11.98;5.03;;;;;;;;;;4983126;28;20461;-78
2022/02/12 06:36:06;;;;;;;12.73;6.18;;;;;;;;;;4960044;28;20050;-75
2022/02/12 06:38:32;;;;;;;8.57;4.68;;;;;;;;;;4977791;28;20042;-75
2022/02/12 06:41:00;;;;;;;8.20;5.57;;;;;;;;;;4975251;28;20485;-75
2022/02/12 06:43:26;;;;;;;10.13;5.20;;;;;;;;;;4973384;28;20042;-74
2022/02/12 06:45:52;;;;;;;8.57;4.50;;;;;;;;;;4974344;28;20098;-75
2022/02/12 06:48:18;;;;;;;13.45;4.53;;;;;;;;;;4973852;28;20026;-76
2022/02/12 06:50:45;;;;;;;11.07;5.35;;;;;;;;;;4985946;28;20018;-77
2022/02/12 06:53:11;;;;;;;8.82;4.68;;;;;;;;;;4974838;28;20385;-74
2022/02/12 06:55:37;;;;;;;14.65;6.10;;;;;;;;;;4981407;28;20058;-76
2022/02/12 06:58:05;;;;;;;8.00;4.95;;;;;;;;;;4979488;28;20120;-73
2022/02/12 07:00:34;;;;;;;11.85;5.20;;;;;;;;;;4970908;28;20382;-74
2022/02/12 07:03:00;;;;;;;13.15;7.35;;;;;;;;;;4973023;28;20035;-74
2022/02/12 07:05:30;;;;;;;12.15;5.70;;;;;;;;;;4975663;28;20159;-78
2022/02/12 07:07:57;;;;;;;9.30;5.13;;;;;;;;;;4975400;28;20027;-78
2022/02/12 07:10:25;;;;;;;7.90;4.18;;;;;;;;;;4977586;28;20039;-85
2022/02/12 07:12:56;;;;;;;8.63;4.68;;;;;;;;;;4976352;28;20035;-80
2022/02/12 07:15:25;;;;;;;13.27;6.45;;;;;;;;;;4950101;28;20054;-91
2022/02/12 07:17:53;;;;;;;11.32;5.55;;;;;;;;;;4936612;29;20038;-84
2022/02/12 07:20:19;;;;;;;9.55;4.78;;;;;;;;;;4935304;29;20110;-84
2022/02/12 07:22:46;;;;;;;10.95;4.53;;;;;;;;;;4920198;29;20142;-88
2022/02/12 07:25:13;;;;;;;11.65;5.10;;;;;;;;;;4918012;29;20027;-79
2022/02/12 07:27:40;;;;;;;14.57;5.47;;;;;;;;;;4950677;29;20108;-76
2022/02/12 07:30:08;;;;;;;11.07;4.72;;;;;;;;;;4919863;29;20497;-73
2022/02/12 07:32:34;;;;;;;10.68;5.28;;;;;;;;;;4916820;29;20048;-74
2022/02/12 07:35:01;;;;;;;11.98;4.97;;;;;;;;;;4914895;29;20504;-74
2022/02/12 07:37:27;;;;;;;16.92;9.07;;;;;;;;;;4916699;29;20044;-75
2022/02/12 07:39:53;;;;;;;20.55;16.98;;;;;;;;;;4918637;29;20040;-75
2022/02/12 07:42:19;;;;;;;10.90;7.18;;;;;;;;;;4916007;29;20072;-76
2022/02/12 07:44:45;;;;;;;15.35;5.05;;;;;;;;;;4915326;29;20114;-75
2022/02/12 07:47:11;;;;;;;11.48;4.85;;;;;;;;;;4915848;29;20032;-75
2022/02/12 07:49:37;;;;;;;10.20;5.32;;;;;;;;;;4915060;29;20475;-73
2022/02/12 07:52:06;;;;;;;9.50;5.40;;;;;;;;;;4910986;29;20103;-73
2022/02/12 07:54:32;;;;;;;9.07;5.03;;;;;;;;;;4915268;29;20089;-75
2022/02/12 07:56:59;;;;;;;11.00;5.95;;;;;;;;;;4905319;29;20039;-75
2022/02/12 07:59:25;;;;;;;11.40;5.25;;;;;;;;;;4938273;29;20043;-74
2022/02/12 08:01:54;;;;;;;10.60;5.47;;;;;;;;;;4956361;29;20028;-73
2022/02/12 08:04:22;;;;;;;9.30;5.80;;;;;;;;;;4954520;29;20035;-73
2022/02/12 08:09:35;;;;;;;11.43;5.78;;;;;;;;;;4956264;29;20038;-69
2022/02/12 08:12:06;;;;;;;10.15;5.40;;;;;;;;;;4955513;29;20054;-78
2022/02/12 08:14:33;;;;;;;10.57;4.97;;;;;;;;;;4938020;29;20497;-71
2022/02/12 08:17:00;;;;;;;12.73;6.40;;;;;;;;;;4955227;29;20023;-72
2022/02/12 08:19:26;;;;;;;9.75;5.32;;;;;;;;;;4951537;29;20034;-70
2022/02/12 08:21:52;;;;;;;9.90;5.50;;;;;;;;;;4956306;29;20043;-70
2022/02/12 08:24:18;;;;;;;10.82;5.82;;;;;;;;;;4955659;29;20038;-80
2022/02/12 08:26:44;;;;;;;10.15;5.50;;;;;;;;;;4955194;29;20023;-72
2022/02/12 08:29:10;;;;;;;12.40;5.03;;;;;;;;;;4953994;28;20110;-74
2022/02/12 08:31:37;;;;;;;9.88;5.32;;;;;;;;;;4955066;29;20489;-74
2022/02/12 08:34:03;;;;;;;9.90;5.50;;;;;;;;;;4955794;29;20031;-74
2022/02/12 08:36:31;;;;;;;10.63;5.10;;;;;;;;;;4955230;29;20097;-77
2022/02/12 08:38:58;;;;;;;11.40;4.72;;;;;;;;;;4955567;29;20133;-75
2022/02/12 08:41:24;;;;;;;9.23;5.43;;;;;;;;;;4955082;28;20524;-71
2022/02/12 08:43:50;;;;;;;12.77;5.88;;;;;;;;;;4954398;29;20065;-81
2022/02/12 08:46:16;;;;;;;9.23;4.88;;;;;;;;;;4958512;28;20034;-75
2022/02/12 08:48:42;;;;;;;8.98;5.30;;;;;;;;;;4965493;28;20031;-77
2022/02/12 08:51:10;;;;;;;11.25;5.57;;;;;;;;;;4942847;28;20043;-75
2022/02/12 08:53:36;;;;;;;8.65;4.88;;;;;;;;;;4957086;28;20083;-74
2022/02/12 08:56:02;;;;;;;8.95;4.97;;;;;;;;;;4956167;29;20105;-74
2022/02/12 08:58:28;;;;;;;8.02;4.95;;;;;;;;;;4956445;29;20034;-76
2022/02/12 09:00:54;;;;;;;10.43;5.65;;;;;;;;;;4958894;28;20031;-78
2022/02/12 09:03:20;;;;;;;8.80;5.45;;;;;;;;;;4958575;28;20027;-74
2022/02/12 09:05:46;;;;;;;12.55;5.55;;;;;;;;;;4944833;29;20489;-74
2022/02/12 09:08:13;;;;;;;9.32;5.57;;;;;;;;;;4956424;29;20027;-74
2022/02/12 09:10:39;;;;;;;10.85;5.55;;;;;;;;;;4956908;29;20478;-74
2022/02/12 09:13:06;;;;;;;18.77;5.97;;;;;;;;;;4956883;28;20034;-74
2022/02/12 09:15:32;;;;;;;11.90;5.72;;;;;;;;;;4956344;28;20031;-74
2022/02/12 09:17:58;;;;;;;7.78;5.35;;;;;;;;;;4960626;29;20024;-74
2022/02/12 09:20:24;;;;;;;12.52;6.18;;;;;;;;;;4960377;29;20027;-75
2022/02/12 09:22:50;;;;;;;12.80;6.05;;;;;;;;;;4955260;28;20036;-74
2022/02/12 09:25:16;;;;;;;10.60;5.75;;;;;;;;;;4954949;29;20489;-74
2022/02/12 09:27:42;;;;;;;13.00;6.78;;;;;;;;;;4959040;29;20031;-74
2022/02/12 09:30:10;;;;;;;10.43;6.10;;;;;;;;;;4967988;28;20015;-77
2022/02/12 09:32:41;;;;;;;9.57;5.75;;;;;;;;;;4980809;28;20047;-74
2022/02/12 09:35:07;;;;;;;10.23;5.97;;;;;;;;;;4975232;28;20031;-77
2022/02/12 09:37:33;;;;;;;8.13;5.40;;;;;;;;;;4954067;29;20094;-75
2022/02/12 09:39:59;;;;;;;9.50;5.28;;;;;;;;;;4970259;28;20026;-77
2022/02/12 09:42:26;;;;;;;11.60;5.70;;;;;;;;;;4955571;28;20088;-75
2022/02/12 09:44:52;;;;;;;11.48;6.22;;;;;;;;;;4957860;29;20039;-74
2022/02/12 09:47:24;;;;;;;10.00;6.00;;;;;;;;;;4951288;29;20020;-75
2022/02/12 09:49:53;;;;;;;12.50;5.75;;;;;;;;;;4964290;28;20027;-75
2022/02/12 09:52:19;;;;;;;9.68;5.63;;;;;;;;;;4962747;29;20070;-75
2022/02/12 09:54:45;;;;;;;12.57;6.30;;;;;;;;;;4963186;29;20053;-76
2022/02/12 09:57:12;;;;;;;19.30;6.18;;;;;;;;;;4962237;29;20019;-75
2022/02/12 09:59:39;;;;;;;10.77;5.80;;;;;;;;;;4957181;29;20046;-78
2022/02/12 10:02:05;;;;;;;11.68;5.78;;;;;;;;;;4961810;28;20027;-76
2022/02/12 10:04:32;;;;;;;9.70;5.63;;;;;;;;;;4949035;29;20051;-75
2022/02/12 10:06:59;;;;;;;10.30;5.65;;;;;;;;;;4947947;28;20027;-75
2022/02/12 10:09:29;;;;;;;9.20;6.10;;;;;;;;;;4962277;29;20038;-75
2022/02/12 10:11:56;;;;;;;13.25;6.10;;;;;;;;;;4968275;29;20102;-75
2022/02/12 10:14:24;;;;;;;13.70;6.53;;;;;;;;;;4962699;29;20023;-76
2022/02/12 10:16:58;;;;;;;10.32;5.90;;;;;;;;;;4960389;29;20015;-74
2022/02/12 10:19:28;;;;;;;9.05;5.88;;;;;;;;;;4956973;28;20102;-75
2022/02/12 10:22:04;;;;;;;14.63;6.00;;;;;;;;;;4960400;29;20032;-74
2022/02/12 10:24:51;;;;;;;10.30;5.80;;;;;;;;;;4958696;28;20043;-71
2022/02/12 10:27:18;;;;;;;11.40;6.55;;;;;;;;;;4965832;28;20023;-74
2022/02/12 10:29:47;;;;;;;9.35;5.90;;;;;;;;;;4961218;28;20164;-72
2022/02/12 10:32:17;;;;;;;9.90;5.72;;;;;;;;;;4976872;28;20052;-74
2022/02/12 10:34:44;;;;;;;9.32;5.70;;;;;;;;;;4978827;28;20050;-73
2022/02/12 10:37:11;;;;;;;8.40;5.78;;;;;;;;;;4977561;28;20023;-76
2022/02/12 10:39:52;;;;;;;8.68;4.90;;;;;;;;;;4973064;28;20031;-75
2022/02/12 10:42:18;;;;;;;10.00;5.20;;;;;;;;;;4970926;28;20077;-76
2022/02/12 10:45:04;;;;;;;6.57;4.63;;;;;;;;;;4979881;28;20097;-80
2022/02/12 10:47:30;;;;;;;7.38;4.93;;;;;;;;;;4982699;28;20007;-75
2022/02/12 10:49:57;;;;;;;8.43;5.72;;;;;;;;;;4973818;28;20054;-75
2022/02/12 10:52:23;;;;;;;11.13;6.10;;;;;;;;;;4976719;28;20555;-76
2022/02/12 10:54:55;;;;;;;8.40;6.05;;;;;;;;;;4984791;28;20059;-77
2022/02/12 10:57:29;;;;;;;12.02;6.30;;;;;;;;;;4980617;28;20035;-73
2022/02/12 10:59:56;;;;;;;9.32;6.43;;;;;;;;;;4977885;28;20698;-74
2022/02/12 11:02:23;;;;;;;9.15;6.13;;;;;;;;;;4960740;28;20058;-75
2022/02/12 11:04:52;;;;;;;11.43;6.70;;;;;;;;;;4978179;28;20045;-75
2022/02/12 11:07:18;;;;;;;9.43;6.03;;;;;;;;;;4978630;28;20015;-74
2022/02/12 11:09:46;;;;;;;9.90;6.05;;;;;;;;;;4975868;28;20122;-76
2022/02/12 11:12:12;;;;;;;10.15;5.82;;;;;;;;;;4981473;28;20018;-77
2022/02/12 11:14:39;;;;;;;10.65;6.07;;;;;;;;;;4980042;28;20035;-75
2022/02/12 11:17:10;;;;;;;10.23;6.05;;;;;;;;;;4977428;28;20031;-75
2022/02/12 11:19:37;;;;;;;8.50;5.40;;;;;;;;;;4977319;28;20030;-75
2022/02/12 11:22:04;;;;;;;8.48;5.70;;;;;;;;;;4977762;28;20537;-75
2022/02/12 11:24:40;;;;;;;9.52;5.75;;;;;;;;;;4960724;28;20101;-75
2022/02/12 11:27:29;;;;;;;10.02;6.30;;;;;;;;;;4978140;28;20031;-75
2022/02/12 11:30:15;;;;;;;10.52;6.18;;;;;;;;;;4977619;28;20065;-75
2022/02/12 11:32:42;;;;;;;16.13;6.60;;;;;;;;;;4978318;28;20058;-77
2022/02/12 11:35:09;;;;;;;8.60;5.80;;;;;;;;;;4984742;28;20062;-77
2022/02/12 11:37:44;;;;;;;9.02;5.60;;;;;;;;;;4978456;28;20055;-76
2022/02/12 11:40:14;;;;;;;7.53;5.80;;;;;;;;;;4975367;28;20038;-76
2022/02/12 11:42:40;;;;;;;8.82;5.85;;;;;;;;;;4976157;28;20504;-76
2022/02/12 11:45:29;;;;;;;10.27;5.90;;;;;;;;;;4976075;28;20042;-75
2022/02/12 11:48:09;;;;;;;7.43;6.13;;;;;;;;;;4976452;28;20078;-75
2022/02/12 11:50:52;;;;;;;9.25;6.28;;;;;;;;;;4976777;28;20379;-76
2022/02/12 11:53:34;;;;;;;8.70;6.30;;;;;;;;;;4974851;28;20023;-75
2022/02/12 11:56:06;;;;;;;10.85;6.38;;;;;;;;;;4973343;28;20023;-76
2022/02/12 11:58:42;;;;;;;13.75;7.20;;;;;;;;;;4985817;28;20023;-77
2022/02/12 12:01:32;;;;;;;9.93;5.95;;;;;;;;;;4976630;28;20030;-76
2022/02/12 12:07:12;;;;;;;12.15;7.28;;;;;;;;;;5044691;23;20061;-75
2022/02/12 12:09:40;;;;;;;13.07;6.90;;;;;;;;;;5000094;28;20045;-72
2022/02/12 12:12:16;;;;;;;10.05;6.43;;;;;;;;;;4977509;28;20061;-75
2022/02/12 12:14:42;;;;;;;10.95;6.18;;;;;;;;;;4996263;28;20033;-74
2022/02/12 12:17:09;;;;;;;9.90;6.35;;;;;;;;;;4994772;28;20049;-75
2022/02/12 12:19:36;;;;;;;11.27;6.88;;;;;;;;;;4984442;28;20102;-74
2022/02/12 12:22:07;;;;;;;11.20;6.60;;;;;;;;;;4977019;28;20030;-74
2022/02/12 12:24:33;;;;;;;8.75;6.03;;;;;;;;;;4975991;28;20394;-76
2022/02/12 12:26:59;;;;;;;9.07;6.20;;;;;;;;;;4959806;28;20118;-75
2022/02/12 12:32:13;;;;;;;8.40;6.45;;;;;;;;;;4993836;28;20033;-75
2022/02/12 12:34:51;;;;;;;9.23;6.57;;;;;;;;;;4982854;28;20039;-76
2022/02/12 12:37:21;;;;;;;8.55;5.68;;;;;;;;;;4975881;28;20034;-73
2022/02/12 12:39:47;;;;;;;9.63;5.97;;;;;;;;;;4977313;28;20056;-73
2022/02/12 12:42:14;;;;;;;8.65;6.10;;;;;;;;;;4975674;28;20033;-74
2022/02/12 12:44:42;;;;;;;9.82;6.05;;;;;;;;;;4976332;28;20074;-76
2022/02/12 12:47:14;;;;;;;13.13;6.25;;;;;;;;;;4982088;28;20416;-77
2022/02/12 12:49:41;;;;;;;11.48;5.72;;;;;;;;;;4979341;28;20545;-75
2022/02/12 12:52:08;;;;;;;9.15;5.70;;;;;;;;;;4980785;28;20053;-74
2022/02/12 12:54:35;;;;;;;7.43;5.68;;;;;;;;;;4986444;28;20019;-74
2022/02/12 12:57:03;;;;;;;8.82;5.55;;;;;;;;;;4983721;28;20031;-76
2022/02/12 12:59:57;;;;;;;7.93;5.93;;;;;;;;;;4987372;28;20030;-75
2022/02/12 13:02:24;;;;;;;7.80;5.10;;;;;;;;;;4987660;28;20031;-74
2022/02/12 13:04:50;;;;;;;8.80;4.97;;;;;;;;;;4993935;28;20046;-77
2022/02/12 13:07:18;;;;;;;8.15;5.13;;;;;;;;;;4975409;28;20047;-79
2022/02/12 13:09:45;;;;;;;9.65;5.07;;;;;;;;;;4969252;28;20109;-78
2022/02/12 13:12:30;;;;;;;11.68;5.43;;;;;;;;;;4980773;28;20029;-75
2022/02/12 13:14:57;;;;;;;7.95;4.97;;;;;;;;;;4972167;28;20382;-75
2022/02/12 13:17:23;;;;;;;5.93;4.75;;;;;;;;;;4982406;28;20030;-72
2022/02/12 13:19:52;;;;;;;7.53;5.07;;;;;;;;;;4976993;28;20034;-73
2022/02/12 13:22:18;;;;;;;7.50;4.93;;;;;;;;;;4962681;28;20034;-74
2022/02/12 13:24:52;;;;;;;7.32;5.03;;;;;;;;;;4978070;28;20045;-74
2022/02/12 13:27:23;;;;;;;8.32;5.10;;;;;;;;;;4977764;28;20473;-76
2022/02/12 13:29:50;;;;;;;7.65;5.07;;;;;;;;;;4973497;28;20037;-75
2022/02/12 13:32:16;;;;;;;8.50;5.30;;;;;;;;;;4974095;28;20029;-75
2022/02/12 13:34:49;;;;;;;8.38;5.90;;;;;;;;;;4974658;28;20035;-74
2022/02/12 13:37:15;;;;;;;10.32;5.72;;;;;;;;;;4975423;28;20015;-75
2022/02/12 13:39:52;;;;;;;8.43;5.05;;;;;;;;;;4974485;28;20037;-76
2022/02/12 13:42:20;;;;;;;7.47;5.13;;;;;;;;;;4974688;28;20461;-74
2022/02/12 13:44:59;;;;;;;8.30;5.00;;;;;;;;;;4980586;28;20385;-76
2022/02/12 13:47:26;;;;;;;8.40;4.97;;;;;;;;;;4951246;28;20030;-76
2022/02/12 13:49:54;;;;;;;8.30;4.78;;;;;;;;;;4976741;28;20023;-76
2022/02/12 13:52:20;;;;;;;7.22;4.80;;;;;;;;;;4977806;28;20045;-77
2022/02/12 13:55:00;;;;;;;6.38;4.45;;;;;;;;;;4979722;28;20029;-77
2022/02/12 13:57:26;;;;;;;6.60;4.57;;;;;;;;;;4978650;28;20034;-78
2022/02/12 13:59:53;;;;;;;6.70;4.80;;;;;;;;;;4974676;28;20101;-77
2022/02/12 14:02:19;;;;;;;7.38;4.57;;;;;;;;;;4975249;28;20030;-77
2022/02/12 14:04:45;;;;;;;5.88;4.45;;;;;;;;;;4974955;28;20131;-76
2022/02/12 14:07:11;;;;;;;7.90;4.50;;;;;;;;;;4974611;28;20114;-77
2022/02/12 14:09:40;;;;;;;6.68;4.70;;;;;;;;;;4981086;28;20034;-76
2022/02/12 14:12:06;;;;;;;7.50;5.15;;;;;;;;;;4988184;28;20146;-75
2022/02/12 14:14:32;;;;;;;7.07;4.97;;;;;;;;;;4987937;28;20022;-73
2022/02/12 14:16:59;;;;;;;8.85;4.78;;;;;;;;;;4976533;28;20023;-76
2022/02/12 14:19:26;;;;;;;7.43;4.93;;;;;;;;;;4982600;28;20027;-78
2022/02/12 14:21:52;;;;;;;7.95;5.28;;;;;;;;;;4983454;28;20026;-78
2022/02/12 14:24:20;;;;;;;8.30;5.03;;;;;;;;;;4975728;28;20096;-76
2022/02/12 14:26:50;;;;;;;7.60;5.05;;;;;;;;;;4979635;28;20026;-75
2022/02/12 14:29:16;;;;;;;8.57;5.53;;;;;;;;;;4983593;28;20035;-75
2022/02/12 14:31:46;;;;;;;8.93;5.28;;;;;;;;;;4986941;28;20039;-78
2022/02/12 14:34:12;;;;;;;6.95;5.03;;;;;;;;;;4986037;28;20039;-75
2022/02/12 14:36:39;;;;;;;12.35;5.65;;;;;;;;;;4994146;28;20097;-76
2022/02/12 14:39:05;;;;;;;9.63;5.15;;;;;;;;;;4971502;28;20477;-77
2022/02/12 14:41:32;;;;;;;7.20;5.15;;;;;;;;;;4982161;28;20086;-77
2022/02/12 14:44:00;;;;;;;9.30;6.00;;;;;;;;;;4983226;28;20058;-76
2022/02/12 14:46:26;;;;;;;7.88;5.20;;;;;;;;;;5001194;28;20074;-77
2022/02/12 14:49:13;;;;;;;9.45;5.25;;;;;;;;;;4995977;28;20039;-79
2022/02/12 14:52:11;;;;;;;6.97;4.93;;;;;;;;;;4994571;28;20035;-78
2022/02/12 14:54:49;;;;;;;10.05;5.57;;;;;;;;;;4989129;28;20050;-80
2022/02/12 14:57:15;;;;;;;7.07;4.47;;;;;;;;;;4972588;28;20029;-78
2022/02/12 14:59:41;;;;;;;6.90;5.00;;;;;;;;;;4984935;28;20027;-77